Apache — WCY5541 — position and weather

sailwx.info

Track history (hours):
 
Tides and Currents Weather Stations Pressure Air Temp Water Temp Dewpoint Dewpoint Depression Visibility Wind Speed Wind Dir Waves Ship Positions

Apache

Owner: SAUSE BROS., COOS BAY, OR. More information available from US FCC via Universal Licensing System and Coast Guard Vessel Documentation Center.

Last reported at 2018-Jan-23 02:48 UTC. Time now 2018-Jan-23 13:55 UTC.
Position N 33°43' W 118°15'.

Length 15 m; draft 2 m.

Type: Towing. MMSI: 367008720.

Date/timePositionNaut miles runAvg speedWind from/ knotsBaromVisibWave heightAir tempDewpointWater temp
2018-Jan-23 02:48N 33°43' W 118°15'4 0.6
2018-Jan-22 20:09N 33°45' W 118°11'0 0.0
2018-Jan-22 19:51N 33°45' W 118°11'0 0.0
2018-Jan-22 19:21N 33°45' W 118°11'4 0.8
2018-Jan-22 15:06N 33°43' W 118°15'0 4.7
2018-Jan-22 14:59N 33°43' W 118°15'  
2018-Jan-19 06:49N 33°45' W 118°12'0 0.0
2018-Jan-19 06:19N 33°45' W 118°12'0 0.1
2018-Jan-19 05:49N 33°45' W 118°12'0 0.0
2018-Jan-19 05:19N 33°45' W 118°12'0 0.0
2018-Jan-19 04:55N 33°45' W 118°12'0 0.0
2018-Jan-19 04:25N 33°45' W 118°12'3 1.8
2018-Jan-19 02:38N 33°43' W 118°16'0 0.2
2018-Jan-19 01:02N 33°43' W 118°16'0 4.4
2018-Jan-19 01:00N 33°43' W 118°16'1 0.4
2018-Jan-18 23:13N 33°44' W 118°16'0 0.0
2018-Jan-18 22:55N 33°44' W 118°16'0 0.0
2018-Jan-18 21:25N 33°44' W 118°16'1 0.4
2018-Jan-18 19:24N 33°43' W 118°16'1 2.0
2018-Jan-18 18:58N 33°44' W 118°15'0 0.0
2018-Jan-18 18:28N 33°44' W 118°15'0 0.0
2018-Jan-18 15:43N 33°44' W 118°15'  
Track history (hours):
 
Tides and Currents Weather Stations Pressure Air Temp Water Temp Dewpoint Dewpoint Depression Visibility Wind Speed Wind Dir Waves Ship Positions

Apache

Owner: SAUSE BROS., COOS BAY, OR. More information available from US FCC via Universal Licensing System and Coast Guard Vessel Documentation Center.

Last reported at 2018-Jan-23 02:48 UTC. Time now 2018-Jan-23 13:55 UTC.
Position N 33°43' W 118°15'.

Length 15 m; draft 2 m.

Type: Towing. MMSI: 367008720.

Date/timePositionNaut miles runAvg speedWind from/ knotsBaromVisibWave heightAir tempDewpointWater temp
2018-Jan-23 02:48N 33°43' W 118°15'4 0.6
2018-Jan-22 20:09N 33°45' W 118°11'0 0.0
2018-Jan-22 19:51N 33°45' W 118°11'0 0.0
2018-Jan-22 19:21N 33°45' W 118°11'4 0.8
2018-Jan-22 15:06N 33°43' W 118°15'0 4.7
2018-Jan-22 14:59N 33°43' W 118°15'  
2018-Jan-19 06:49N 33°45' W 118°12'0 0.0
2018-Jan-19 06:19N 33°45' W 118°12'0 0.1
2018-Jan-19 05:49N 33°45' W 118°12'0 0.0
2018-Jan-19 05:19N 33°45' W 118°12'0 0.0
2018-Jan-19 04:55N 33°45' W 118°12'0 0.0
2018-Jan-19 04:25N 33°45' W 118°12'3 1.8
2018-Jan-19 02:38N 33°43' W 118°16'0 0.2
2018-Jan-19 01:02N 33°43' W 118°16'0 4.4
2018-Jan-19 01:00N 33°43' W 118°16'1 0.4
2018-Jan-18 23:13N 33°44' W 118°16'0 0.0
2018-Jan-18 22:55N 33°44' W 118°16'0 0.0
2018-Jan-18 21:25N 33°44' W 118°16'1 0.4
2018-Jan-18 19:24N 33°43' W 118°16'1 2.0
2018-Jan-18 18:58N 33°44' W 118°15'0 0.0
2018-Jan-18 18:28N 33°44' W 118°15'0 0.0
2018-Jan-18 15:43N 33°44' W 118°15'  

Dump ship's entire track history